createdAt,value
2018-05-31T00:02:51.115Z,21.30
2018-05-31T00:06:53.784Z,21.30
2018-05-31T00:10:56.456Z,21.20
2018-05-31T00:14:59.113Z,21.20
2018-05-31T00:19:01.769Z,21.10
2018-05-31T00:23:05.212Z,21.00
2018-05-31T00:27:07.893Z,21.00
2018-05-31T00:31:11.315Z,21.00
2018-05-31T00:35:13.974Z,20.90
2018-05-31T00:39:16.636Z,20.90
2018-05-31T00:43:19.301Z,20.90
2018-05-31T00:47:21.963Z,20.90
2018-05-31T00:51:24.648Z,20.90
2018-05-31T00:55:39.052Z,20.80
2018-05-31T00:59:41.724Z,20.80
2018-05-31T01:03:44.392Z,20.70
2018-05-31T01:07:47.831Z,20.60
2018-05-31T01:11:50.534Z,20.50
2018-05-31T01:15:53.160Z,20.50
2018-05-31T01:19:55.813Z,20.50
2018-05-31T01:23:58.469Z,20.50
2018-05-31T01:28:01.184Z,20.40
2018-05-31T01:32:03.870Z,20.40
2018-05-31T01:36:06.504Z,20.30
2018-05-31T01:40:09.952Z,20.30
2018-05-31T01:44:12.625Z,20.20
2018-05-31T01:48:15.298Z,20.20
2018-05-31T01:52:18.733Z,20.10
2018-05-31T01:56:21.407Z,20.00
2018-05-31T02:00:24.077Z,20.10
2018-05-31T02:04:27.522Z,19.90
2018-05-31T02:08:30.213Z,19.90
2018-05-31T02:12:32.845Z,19.90
2018-05-31T02:16:35.501Z,19.90
2018-05-31T02:20:38.155Z,19.80
2018-05-31T02:24:40.829Z,19.80
2018-05-31T02:28:43.513Z,19.80
2018-05-31T02:32:46.912Z,19.70
2018-05-31T02:36:49.577Z,19.60
2018-05-31T02:40:52.260Z,19.70
2018-05-31T02:44:54.938Z,19.60
2018-05-31T02:48:57.680Z,19.60
2018-05-31T02:53:01.088Z,19.50
2018-05-31T03:01:08.966Z,19.40
2018-05-31T03:05:11.623Z,19.40
2018-05-31T03:09:14.316Z,19.40
2018-05-31T03:13:17.705Z,19.30
2018-05-31T03:17:20.368Z,19.30
2018-05-31T03:21:23.033Z,19.30
2018-05-31T03:25:25.693Z,19.20
2018-05-31T03:29:28.332Z,19.20
2018-05-31T03:33:31.006Z,19.20
2018-05-31T03:37:33.676Z,19.20
2018-05-31T03:41:36.338Z,19.10
2018-05-31T03:45:39.009Z,19.10
2018-05-31T03:49:41.700Z,19.10
2018-05-31T03:53:44.368Z,19.10
2018-05-31T03:57:47.036Z,19.10
2018-05-31T04:01:49.702Z,19.00
2018-05-31T04:05:52.365Z,19.00
2018-05-31T04:09:55.758Z,19.00
2018-05-31T04:13:58.432Z,18.90
2018-05-31T04:18:01.097Z,18.90
2018-05-31T04:22:03.774Z,18.90
2018-05-31T04:26:06.449Z,18.90
2018-05-31T04:30:09.079Z,18.90
2018-05-31T04:34:11.753Z,19.00
2018-05-31T04:38:14.420Z,19.00
2018-05-31T04:42:17.100Z,19.00
2018-05-31T04:46:19.826Z,19.00
2018-05-31T04:50:22.476Z,19.00
2018-05-31T04:54:25.182Z,19.10
2018-05-31T04:58:27.848Z,19.10
2018-05-31T05:02:31.281Z,19.20
2018-05-31T05:06:33.971Z,19.20
2018-05-31T05:10:36.594Z,19.20
2018-05-31T05:14:39.256Z,19.30
2018-05-31T05:18:41.940Z,19.30
2018-05-31T05:22:44.601Z,19.30
2018-05-31T05:26:48.025Z,19.40
2018-05-31T05:30:51.004Z,19.30
2018-05-31T05:34:53.706Z,19.40
2018-05-31T05:38:56.449Z,19.50
2018-05-31T05:42:59.129Z,19.50
2018-05-31T05:47:01.797Z,19.50
2018-05-31T05:51:04.423Z,19.60
2018-05-31T05:55:07.090Z,19.70
2018-05-31T05:59:09.762Z,19.70
2018-05-31T06:03:12.441Z,19.80
2018-05-31T06:07:15.098Z,19.90
2018-05-31T06:11:18.498Z,20.00
2018-05-31T06:15:21.148Z,20.00
2018-05-31T06:19:23.806Z,20.20
2018-05-31T06:23:26.473Z,20.50
2018-05-31T06:27:29.893Z,22.40
2018-05-31T06:31:32.512Z,22.30
2018-05-31T06:35:35.182Z,23.40
2018-05-31T06:39:37.829Z,24.70
2018-05-31T06:43:40.468Z,25.60
2018-05-31T06:47:43.169Z,26.30
2018-05-31T06:51:46.548Z,27.50
2018-05-31T06:55:49.197Z,27.40
2018-05-31T06:59:51.845Z,28.20
2018-05-31T07:03:54.505Z,28.80
2018-05-31T07:07:57.914Z,29.90
2018-05-31T07:12:00.548Z,29.80
2018-05-31T07:16:03.238Z,30.40
2018-05-31T07:20:05.880Z,30.90
2018-05-31T07:24:09.287Z,32.00
2018-05-31T07:28:12.711Z,32.40
2018-05-31T07:32:15.376Z,32.30
2018-05-31T07:36:18.836Z,33.10
2018-05-31T07:40:21.461Z,33.00
2018-05-31T07:44:24.155Z,33.40
2018-05-31T07:48:26.812Z,33.70
2018-05-31T07:52:29.417Z,34.00
2018-05-31T07:56:32.053Z,34.40
2018-05-31T08:00:34.696Z,34.70
2018-05-31T08:04:37.335Z,35.00
2018-05-31T08:08:39.981Z,35.30
2018-05-31T08:12:43.357Z,35.60
2018-05-31T08:16:45.996Z,35.60
2018-05-31T08:20:49.368Z,35.80
2018-05-31T08:24:52.008Z,35.90
2018-05-31T08:28:54.644Z,35.90
2018-05-31T08:32:57.245Z,35.80
2018-05-31T08:37:00.648Z,35.70
2018-05-31T08:41:04.048Z,35.80
2018-05-31T08:45:06.696Z,35.70
2018-05-31T08:49:09.348Z,35.80
2018-05-31T08:53:12.712Z,36.00
2018-05-31T08:57:15.361Z,36.00
2018-05-31T09:04:33.733Z,36.00
2018-05-31T09:08:36.344Z,35.90
2018-05-31T09:12:38.975Z,35.90
2018-05-31T09:16:41.608Z,35.90
2018-05-31T09:20:44.252Z,35.60
2018-05-31T09:24:46.888Z,35.20
2018-05-31T09:28:50.223Z,34.60
2018-05-31T09:32:52.926Z,33.90
2018-05-31T09:36:55.578Z,33.40
2018-05-31T09:40:58.216Z,32.90
2018-05-31T09:45:00.890Z,32.40
2018-05-31T09:49:14.130Z,32.10
2018-05-31T09:53:16.766Z,31.80
2018-05-31T09:57:19.445Z,31.60
2018-05-31T10:01:22.083Z,31.40
2018-05-31T10:05:24.738Z,31.20
2018-05-31T10:09:27.347Z,31.00
2018-05-31T10:13:30.007Z,30.90
2018-05-31T10:17:32.651Z,30.70
2018-05-31T10:21:35.299Z,30.60
2018-05-31T10:25:37.952Z,30.50
2018-05-31T10:29:40.562Z,30.40
2018-05-31T10:33:43.397Z,30.40
2018-05-31T10:37:46.037Z,30.30
2018-05-31T10:41:48.671Z,30.20
2018-05-31T10:45:51.480Z,30.20
2018-05-31T10:49:54.092Z,30.20
2018-05-31T10:53:56.750Z,30.10
2018-05-31T10:57:59.389Z,30.10
2018-05-31T11:02:02.034Z,30.10
2018-05-31T11:06:04.645Z,30.10
2018-05-31T11:10:07.301Z,30.10
2018-05-31T11:14:09.953Z,30.10
2018-05-31T11:22:16.524Z,30.20
2018-05-31T11:26:19.906Z,30.20
2018-05-31T11:30:22.544Z,30.10
2018-05-31T11:34:25.226Z,30.20
2018-05-31T11:38:27.865Z,30.20
2018-05-31T11:42:30.513Z,30.30
2018-05-31T11:46:33.116Z,30.30
2018-05-31T11:50:35.753Z,30.40
2018-05-31T11:54:39.158Z,30.50
2018-05-31T11:58:42.561Z,30.60
2018-05-31T12:02:45.977Z,30.60
2018-05-31T12:06:49.365Z,30.70
2018-05-31T12:10:52.018Z,30.70
2018-05-31T12:14:54.681Z,30.90
2018-05-31T12:18:57.347Z,31.00
2018-05-31T12:23:00.751Z,31.30
2018-05-31T12:27:04.153Z,31.50
2018-05-31T12:31:07.562Z,31.60
2018-05-31T12:35:10.966Z,31.80
2018-05-31T12:39:14.372Z,31.80
2018-05-31T12:43:17.739Z,31.80
2018-05-31T12:47:20.384Z,31.90
2018-05-31T12:51:23.021Z,32.00
2018-05-31T12:55:25.660Z,32.10
2018-05-31T12:59:28.309Z,32.30
2018-05-31T13:03:30.921Z,32.40
2018-05-31T13:07:34.333Z,32.50
2018-05-31T13:11:36.972Z,32.40
2018-05-31T13:15:39.612Z,32.50
2018-05-31T13:19:43.048Z,32.70
2018-05-31T13:23:45.650Z,32.60
2018-05-31T13:27:48.284Z,32.60
2018-05-31T13:31:51.691Z,32.70
2018-05-31T13:35:55.096Z,32.70
2018-05-31T13:39:58.505Z,32.60
2018-05-31T13:44:01.879Z,32.50
2018-05-31T13:48:04.520Z,32.50
2018-05-31T13:52:07.165Z,32.50
2018-05-31T13:56:09.824Z,32.50
2018-05-31T14:00:12.421Z,32.60
2018-05-31T14:04:15.124Z,32.70
2018-05-31T14:08:18.574Z,32.80
2018-05-31T14:12:21.203Z,32.80
2018-05-31T14:20:21.820Z,32.70
2018-05-31T14:24:24.495Z,32.70
2018-05-31T14:28:27.905Z,32.70
2018-05-31T14:32:31.372Z,32.70
2018-05-31T14:40:34.071Z,32.70
2018-05-31T14:44:36.704Z,32.80
2018-05-31T14:48:39.349Z,32.70
2018-05-31T14:52:42.000Z,32.70
2018-05-31T14:56:45.427Z,32.70
2018-05-31T15:00:48.041Z,32.60
2018-05-31T15:04:50.672Z,32.70
2018-05-31T15:12:47.247Z,32.70
2018-05-31T15:16:50.673Z,32.80
2018-05-31T15:20:54.051Z,32.80
2018-05-31T15:24:57.464Z,32.80
2018-05-31T15:29:00.880Z,32.70
2018-05-31T15:33:04.288Z,32.60
2018-05-31T15:37:08.658Z,32.50
2018-05-31T15:41:11.298Z,32.50
2018-05-31T15:45:14.696Z,32.40
2018-05-31T15:49:18.156Z,32.30
2018-05-31T15:53:20.837Z,32.30
2018-05-31T15:57:23.428Z,32.20
2018-05-31T16:01:26.061Z,32.20
2018-05-31T16:05:28.705Z,32.20
2018-05-31T16:09:31.353Z,32.10
2018-05-31T16:13:34.882Z,32.20
2018-05-31T16:17:37.497Z,32.10
2018-05-31T16:21:40.138Z,32.20
2018-05-31T16:25:43.543Z,32.20
2018-05-31T16:29:46.953Z,32.10
2018-05-31T16:33:50.389Z,32.10
2018-05-31T16:37:53.066Z,32.10
2018-05-31T16:41:55.704Z,32.00
2018-05-31T16:45:58.349Z,32.00
2018-05-31T16:50:00.998Z,32.00
2018-05-31T16:54:04.429Z,31.90
2018-05-31T16:58:07.109Z,31.90
2018-05-31T17:02:10.517Z,31.80
2018-05-31T17:06:13.921Z,31.70
2018-05-31T17:10:17.331Z,31.60
2018-05-31T17:14:20.006Z,31.60
2018-05-31T17:18:23.378Z,31.40
2018-05-31T17:22:26.041Z,31.40
2018-05-31T17:26:28.691Z,31.20
2018-05-31T17:30:32.093Z,31.00
2018-05-31T17:34:35.505Z,30.90
2018-05-31T17:38:38.150Z,30.80
2018-05-31T17:42:40.796Z,30.70
2018-05-31T17:46:44.293Z,30.50
2018-05-31T17:50:47.776Z,30.30
2018-05-31T17:54:50.430Z,30.30
2018-05-31T17:58:53.076Z,30.20
2018-05-31T18:02:56.495Z,29.90
2018-05-31T18:07:00.643Z,29.40
2018-05-31T18:11:03.635Z,28.90
2018-05-31T18:15:06.281Z,28.90
2018-05-31T18:23:08.519Z,28.00
2018-05-31T18:27:11.157Z,27.60
2018-05-31T18:31:13.798Z,27.30
2018-05-31T18:35:16.511Z,27.10
2018-05-31T18:39:19.890Z,26.80
2018-05-31T18:43:22.542Z,26.70
2018-05-31T18:47:25.227Z,26.60
2018-05-31T18:51:27.891Z,26.40
2018-05-31T18:59:32.528Z,26.20
2018-05-31T19:03:35.220Z,26.10
2018-05-31T19:07:37.869Z,26.00
2018-05-31T19:11:41.277Z,25.80
2018-05-31T19:15:44.688Z,25.70
2018-05-31T19:19:53.754Z,25.60
2018-05-31T19:23:57.160Z,25.50
2018-05-31T19:27:59.805Z,25.40
2018-05-31T19:32:02.452Z,25.40
2018-05-31T19:36:10.704Z,25.40
2018-05-31T19:40:13.376Z,25.30
2018-05-31T19:44:21.724Z,25.30
2018-05-31T19:48:24.376Z,25.20
2018-05-31T19:52:32.747Z,25.10
2018-05-31T19:56:36.165Z,25.00
2018-05-31T20:00:45.233Z,24.90
2018-05-31T20:04:47.878Z,24.90
2018-05-31T20:08:50.573Z,24.90
2018-05-31T20:12:53.980Z,24.70
2018-05-31T20:16:57.396Z,24.60
2018-05-31T20:21:00.790Z,24.40
2018-05-31T20:25:04.202Z,24.40
2018-05-31T20:29:07.673Z,24.30
2018-05-31T20:33:10.328Z,24.20
2018-05-31T20:37:12.981Z,24.20
2018-05-31T20:41:16.363Z,24.10
2018-05-31T20:45:19.070Z,24.10
2018-05-31T20:49:21.721Z,24.10
2018-05-31T20:53:24.382Z,24.00
2018-05-31T20:57:27.030Z,23.90
2018-05-31T21:01:29.650Z,23.90
2018-05-31T21:05:32.355Z,23.70
2018-05-31T21:09:35.752Z,23.60
2018-05-31T21:13:38.477Z,23.60
2018-05-31T21:17:41.136Z,23.60
2018-05-31T21:21:43.756Z,23.60
2018-05-31T21:25:46.414Z,23.50
2018-05-31T21:29:49.058Z,23.50
2018-05-31T21:33:51.708Z,23.50
2018-05-31T21:37:54.357Z,23.50
2018-05-31T21:41:57.003Z,23.40
2018-05-31T21:45:59.649Z,23.40
2018-05-31T21:50:02.346Z,23.30
2018-05-31T21:54:04.992Z,23.30
2018-05-31T21:58:07.645Z,23.30
2018-05-31T22:02:10.263Z,23.20
2018-05-31T22:06:12.913Z,23.20
2018-05-31T22:10:15.612Z,23.10
2018-05-31T22:14:18.316Z,23.10
2018-05-31T22:18:20.964Z,23.10
2018-05-31T22:22:23.585Z,23.00
2018-05-31T22:26:26.232Z,23.00
2018-05-31T22:30:28.886Z,23.00
2018-05-31T22:34:31.528Z,22.90
2018-05-31T22:38:34.176Z,22.90
2018-05-31T22:42:37.561Z,22.80
2018-05-31T22:46:40.217Z,22.80
2018-05-31T22:50:42.867Z,22.80
2018-05-31T22:54:46.304Z,22.70
2018-05-31T22:58:48.952Z,22.60
2018-05-31T23:02:52.330Z,22.60
2018-05-31T23:06:54.984Z,22.50
2018-05-31T23:10:57.639Z,22.50
2018-05-31T23:15:01.053Z,22.50
2018-05-31T23:19:04.533Z,22.50
2018-05-31T23:23:07.213Z,22.40
2018-05-31T23:27:09.871Z,22.40
2018-05-31T23:31:12.516Z,22.40
2018-05-31T23:35:15.934Z,22.40
2018-05-31T23:39:18.589Z,22.30
2018-05-31T23:43:21.209Z,22.30
2018-05-31T23:47:24.632Z,22.30
2018-05-31T23:51:27.289Z,22.20
2018-05-31T23:55:30.704Z,22.10
2018-05-31T23:59:34.125Z,22.10
